• Join FlightAware (Why Join?)
  • Login
  • US Flag 
04:27PM EST


 

Airport Tracker/Info


-or-


 

Live Flight TrackerFlight Track Log ✈ N373LD ✈ 13-Jun-2013 ✈ KMLS - KCOD

Flight Track Log - Related Links

Times and Time Zones

All times are in EDT time to prevent confusion due to time zone crossing. See the N373LD flight status page for this flight to view local times or setup timezone preferences in your user account.

Time Position Orientation Groundspeed Altitude Reporting Facility
EDT Latitude Longitude Course Direction KTS MPH feet Rate Location/Type
09:04PM 46.3039 -106.0869 234° Southwest 169 194 7,500  Level Salt Lake Center
09:05PM 46.2747 -106.1386 231° Southwest 172 198 10,500 2,220 Climbing Salt Lake Center
09:06PM 46.2408 -106.1978 230° Southwest 172 198 12,100 1,260 Climbing Salt Lake Center
09:07PM 46.2164 -106.2483 235° Southwest 164 189 13,200 1,200 Climbing Salt Lake Center
09:08PM 46.2037 -106.2441 228° Southwest  Level FlightAware Approximate
09:08PM 46.1853 -106.2997 229° Southwest 156 180 14,600  Level Salt Lake Center
09:09PM 46.1678 -106.3037 229° Southwest  Level FlightAware Approximate
09:09PM 46.1586 -106.3428 228° Southwest 150 173 15,800  Level Salt Lake Center
09:10PM 46.1339 -106.3656 234° Southwest  Level FlightAware Approximate
09:10PM 46.1289 -106.3953 231° Southwest 151 174 17,000  Level Salt Lake Center
09:12PM 46.1031 -106.4386 229° Southwest 151 174 18,000 960 Climbing Salt Lake Center
09:13PM 46.0778 -106.4831 231° Southwest 151 174 19,000 900 Climbing Salt Lake Center
09:14PM 46.0428 -106.5322 224° Southwest 154 177 19,900 480 Climbing Salt Lake Center
09:15PM 46.0075 -106.5783 222° Southwest 174 200 20,000  Climbing Salt Lake Center
09:16PM 45.9642 -106.6342 222° Southwest 186 214 20,000  Level Salt Lake Center
09:17PM 45.9253 -106.6894 225° Southwest 197 227 20,000  Level Salt Lake Center
09:18PM 45.8797 -106.7528 224° Southwest 203 234 20,000  Level Salt Lake Center
09:19PM 45.8406 -106.8061 223° Southwest 204 235 20,000  Level Salt Lake Center
09:20PM 45.8008 -106.8583 223° Southwest 204 235 20,000  Level Salt Lake Center
09:21PM 45.7556 -106.9192 223° Southwest 200 230 20,000  Level Salt Lake Center
09:22PM 45.7158 -106.9708 222° Southwest 199 229 20,000  Level Salt Lake Center
09:23PM 45.6708 -107.0319 224° Southwest 200 230 20,000  Level Salt Lake Center
09:24PM 45.6317 -107.0844 223° Southwest 201 231 20,000  Level Salt Lake Center
09:25PM 45.5931 -107.1364 223° Southwest 200 230 20,000  Level Salt Lake Center
09:26PM 45.5475 -107.2025 225° Southwest 207 238 20,000  Level Salt Lake Center
09:27PM 45.5078 -107.2564 224° Southwest 206 237 20,000  Level Salt Lake Center
09:28PM 45.4625 -107.3144 222° Southwest 197 227 20,000  Level Salt Lake Center
09:29PM 45.4253 -107.3644 223° Southwest 192 221 20,000  Level Salt Lake Center
09:30PM 45.3828 -107.4217 223° Southwest 188 216 20,000  Level Salt Lake Center
09:31PM 45.3450 -107.4706 222° Southwest 191 220 20,000  Level Salt Lake Center
09:32PM 45.3094 -107.5147 221° Southwest 182 209 20,000  Level Salt Lake Center
09:33PM 45.2644 -107.5750 223° Southwest 189 217 20,000  Level Salt Lake Center
09:34PM 45.2267 -107.6247 223° Southwest 188 216 20,000  Level Salt Lake Center
09:35PM 45.1897 -107.6739 223° Southwest 182 209 20,000  Level Salt Lake Center
09:36PM 45.1486 -107.7275 223° Southwest 190 219 20,000  Level Salt Lake Center
09:37PM 45.1086 -107.7794 223° Southwest 194 223 20,000  Level Salt Lake Center
09:38PM 45.0694 -107.8311 223° Southwest 191 220 20,000  Level Salt Lake Center
09:39PM 45.0367 -107.8744 223° Southwest 175 201 20,000  Level Salt Lake Center
09:40PM 45.0000 -107.9233 223° Southwest 166 191 20,000  Level Salt Lake Center
09:41PM 44.9586 -107.9461 201° Southwest 168 193 20,000  Level Salt Lake Center
09:42PM 44.9083 -107.9739 201° Southwest 173 199 20,000  Level Salt Lake Center
09:43PM 44.8736 -107.9903 198° South 139 160 20,000  Level Salt Lake Center
09:44PM 44.8425 -108.0289 221° Southwest 139 160 20,000  Level Salt Lake Center
09:45PM 44.8269 -108.0881 250° West 159 183 20,000  Level Salt Lake Center
09:46PM 44.8081 -108.1436 244° Southwest 164 189 20,000  Level Salt Lake Center
09:47PM 44.7897 -108.2036 247° West 154 177 20,000 -180 Level Salt Lake Center
09:48PM 44.7739 -108.2497 244° Southwest 140 161 19,700 -720 Descending Salt Lake Center
09:49PM 44.7525 -108.3183 246° West 166 191 18,600 -1,260 Descending Salt Lake Center
09:50PM 44.7353 -108.3747 247° West 166 191 17,200 -1,320 Descending Salt Lake Center
09:51PM 44.7172 -108.4347 247° West 172 198 16,000 -1,500 Descending Salt Lake Center
09:53PM 44.6942 -108.5044 245° Southwest 172 198 14,200 -1,500 Descending Salt Lake Center
09:54PM 44.6719 -108.5722 245° Southwest 186 214 13,000 -1,320 Descending Salt Lake Center
09:55PM 44.6481 -108.6500 247° West 193 222 11,500 -1,500 Descending Salt Lake Center